createdAt,value
2022-08-17T00:01:52.382Z,99581.16
2022-08-17T00:04:20.690Z,99586.59
2022-08-17T00:06:49.537Z,99512.03
2022-08-17T00:09:18.433Z,99535.38
2022-08-17T00:12:34.866Z,99583.47
2022-08-17T00:14:33.087Z,99586.31
2022-08-17T00:16:59.867Z,99496.41
2022-08-17T00:19:27.434Z,99539.19
2022-08-17T00:22:31.289Z,99591.31
2022-08-17T00:24:44.772Z,99522.13
2022-08-17T00:27:11.484Z,99531.88
2022-08-17T00:29:38.178Z,99512.72
2022-08-17T00:33:11.941Z,99557.84
2022-08-17T00:34:51.964Z,99499.94
2022-08-17T00:37:18.684Z,99556.16
2022-08-17T00:39:45.426Z,99569.47
2022-08-17T00:42:14.510Z,99534.72
2022-08-17T00:44:41.242Z,99571.16
2022-08-17T00:47:07.999Z,99561.88
2022-08-17T00:49:34.695Z,99582.66
2022-08-17T00:52:11.718Z,99589.44
2022-08-17T00:54:42.238Z,99536.88
2022-08-17T00:57:15.176Z,99545.13
2022-08-17T01:00:01.639Z,99597.88
2022-08-17T01:02:41.901Z,99548.69
2022-08-17T01:05:15.142Z,99503.06
2022-08-17T01:07:43.497Z,99520.50
2022-08-17T01:10:57.150Z,99524.03
2022-08-17T01:13:02.652Z,99597.22
2022-08-17T01:15:34.556Z,99527.56
2022-08-17T01:18:01.259Z,99512.38
2022-08-17T01:20:28.090Z,99519.13
2022-08-17T01:22:55.086Z,99555.28
2022-08-17T01:25:22.565Z,99533.34
2022-08-17T01:27:49.982Z,99548.00
2022-08-17T01:30:58.506Z,99579.66
2022-08-17T01:33:05.834Z,99512.69
2022-08-17T01:35:32.537Z,99571.47
2022-08-17T01:37:59.282Z,99508.31
2022-08-17T01:40:39.338Z,99580.25
2022-08-17T01:43:11.162Z,99514.81
2022-08-17T01:45:45.100Z,99581.38
2022-08-17T01:48:12.798Z,99571.47
2022-08-17T01:50:42.137Z,99583.44
2022-08-17T01:53:14.002Z,99554.28
2022-08-17T01:55:47.121Z,99578.94
2022-08-17T01:58:14.094Z,99568.69
2022-08-17T02:00:46.885Z,99576.88
2022-08-17T02:03:27.245Z,99559.66
2022-08-17T02:05:54.136Z,99568.00
2022-08-17T02:08:37.154Z,99552.78
2022-08-17T02:11:14.746Z,99566.16
2022-08-17T02:13:43.172Z,99577.97
2022-08-17T02:16:09.996Z,99552.06
2022-08-17T02:18:37.070Z,99576.97
2022-08-17T02:21:05.034Z,99588.25
2022-08-17T02:23:35.263Z,99584.16
2022-08-17T02:26:02.245Z,99571.22
2022-08-17T02:28:29.551Z,99564.19
2022-08-17T02:31:02.294Z,99566.44
2022-08-17T02:33:41.954Z,99572.91
2022-08-17T02:36:12.861Z,99576.72
2022-08-17T02:38:41.253Z,99572.22
2022-08-17T02:41:09.267Z,99565.47
2022-08-17T02:43:36.033Z,99572.47
2022-08-17T02:46:02.936Z,99566.44
2022-08-17T02:48:31.820Z,99585.03
2022-08-17T02:51:00.547Z,99570.66
2022-08-17T02:53:27.908Z,99563.59
2022-08-17T02:56:02.500Z,99574.16
2022-08-17T02:58:34.314Z,99568.94
2022-08-17T03:01:04.269Z,99590.31
2022-08-17T03:03:31.107Z,99601.16
2022-08-17T03:05:57.986Z,99593.16
2022-08-17T03:08:25.606Z,99578.63
2022-08-17T03:10:53.098Z,99578.63
2022-08-17T03:13:20.180Z,99561.69
2022-08-17T03:15:48.801Z,99584.44
2022-08-17T03:18:24.345Z,99563.78
2022-08-17T03:20:52.647Z,99585.63
2022-08-17T03:23:24.249Z,99592.13
2022-08-17T03:25:53.803Z,99552.47
2022-08-17T03:28:22.167Z,99540.38
2022-08-17T03:30:49.610Z,99592.19
2022-08-17T03:33:17.100Z,99585.84
2022-08-17T03:35:44.347Z,99528.50
2022-08-17T03:38:12.532Z,99518.63
2022-08-17T03:40:58.819Z,99523.84
2022-08-17T03:43:29.465Z,99585.38
2022-08-17T03:46:28.691Z,99574.59
2022-08-17T03:49:24.455Z,99615.50
2022-08-17T03:52:09.967Z,99598.94
2022-08-17T03:54:55.956Z,99614.00
2022-08-17T03:57:23.144Z,99616.06
2022-08-17T03:59:50.056Z,99612.63
2022-08-17T04:02:23.374Z,99626.31
2022-08-17T04:04:54.276Z,99621.28
2022-08-17T04:07:23.665Z,99637.88
2022-08-17T04:09:50.695Z,99615.41
2022-08-17T04:12:21.614Z,99608.03
2022-08-17T04:14:52.890Z,99649.78
2022-08-17T04:17:25.919Z,99641.78
2022-08-17T04:19:54.002Z,99637.00
2022-08-17T04:22:32.656Z,99641.88
2022-08-17T04:25:08.523Z,99639.22
2022-08-17T04:27:36.386Z,99618.72
2022-08-17T04:30:07.007Z,99643.03
2022-08-17T04:33:09.820Z,99616.97
2022-08-17T04:35:42.733Z,99648.66
2022-08-17T04:38:13.617Z,99659.59
2022-08-17T04:40:59.263Z,99627.66
2022-08-17T04:43:27.697Z,99644.63
2022-08-17T04:45:58.010Z,99652.38
2022-08-17T04:48:35.638Z,99652.31
2022-08-17T04:51:28.132Z,99652.94
2022-08-17T04:53:59.147Z,99655.47
2022-08-17T04:56:28.425Z,99653.09
2022-08-17T04:58:57.939Z,99658.06
2022-08-17T05:01:28.171Z,99635.69
2022-08-17T05:03:59.231Z,99658.44
2022-08-17T05:06:27.686Z,99640.19
2022-08-17T05:08:55.159Z,99661.63
2022-08-17T05:11:23.606Z,99666.56
2022-08-17T05:13:50.531Z,99663.47
2022-08-17T05:16:19.137Z,99677.13
2022-08-17T05:18:46.826Z,99669.28
2022-08-17T05:21:14.317Z,99672.03
2022-08-17T05:23:42.765Z,99672.59
2022-08-17T05:26:26.171Z,99663.38
2022-08-17T05:28:57.208Z,99656.47
2022-08-17T05:31:25.427Z,99633.59
2022-08-17T05:33:53.363Z,99663.75
2022-08-17T05:36:37.987Z,99675.44
2022-08-17T05:39:07.681Z,99669.34
2022-08-17T05:41:34.484Z,99619.34
2022-08-17T05:44:05.412Z,99672.06
2022-08-17T05:46:39.891Z,99687.31
2022-08-17T05:49:08.573Z,99685.56
2022-08-17T05:51:38.276Z,99680.03
2022-08-17T05:54:29.261Z,99686.09
2022-08-17T05:57:15.792Z,99691.75
2022-08-17T05:59:57.898Z,99690.94
2022-08-17T06:02:50.929Z,99692.03
2022-08-17T06:05:31.913Z,99691.41
2022-08-17T06:08:12.242Z,99698.09
2022-08-17T06:10:50.620Z,99697.53
2022-08-17T06:13:49.346Z,99696.53
2022-08-17T06:16:33.176Z,99688.41
2022-08-17T06:19:16.633Z,99678.34
2022-08-17T06:21:47.772Z,99695.75
2022-08-17T06:24:53.234Z,99699.16
2022-08-17T06:27:36.309Z,99676.09
2022-08-17T06:30:11.633Z,99694.16
2022-08-17T06:32:43.761Z,99694.88
2022-08-17T06:35:13.723Z,99690.19
2022-08-17T06:37:59.907Z,99660.91
2022-08-17T06:40:59.233Z,99701.97
2022-08-17T06:43:34.207Z,99711.75
2022-08-17T06:46:01.846Z,99705.38
2022-08-17T06:49:08.042Z,99675.72
2022-08-17T06:52:03.054Z,99710.72
2022-08-17T06:54:38.943Z,99710.88
2022-08-17T06:57:10.788Z,99698.38
2022-08-17T06:59:56.439Z,99704.91
2022-08-17T07:03:00.988Z,99722.06
2022-08-17T07:05:53.884Z,99722.00
2022-08-17T07:08:40.047Z,99728.31
2022-08-17T07:11:22.048Z,99718.84
2022-08-17T07:14:04.208Z,99730.25
2022-08-17T07:16:33.736Z,99739.50
2022-08-17T07:19:00.570Z,99724.38
2022-08-17T07:21:38.622Z,99739.88
2022-08-17T07:24:11.238Z,99737.44
2022-08-17T07:27:07.658Z,99723.16
2022-08-17T07:29:43.016Z,99718.91
2022-08-17T07:32:12.071Z,99739.03
2022-08-17T07:35:00.036Z,99738.53
2022-08-17T07:37:27.072Z,99736.81
2022-08-17T07:40:15.364Z,99728.06
2022-08-17T07:42:45.113Z,99734.38
2022-08-17T07:45:34.758Z,99712.06
2022-08-17T07:48:20.160Z,99725.69
2022-08-17T07:50:49.362Z,99737.47
2022-08-17T07:53:25.855Z,99732.69
2022-08-17T07:55:53.958Z,99743.81
2022-08-17T07:58:23.717Z,99725.59
2022-08-17T08:01:09.319Z,99725.94
2022-08-17T08:03:43.097Z,99746.25
2022-08-17T08:06:26.514Z,99742.22
2022-08-17T08:08:56.040Z,99751.38
2022-08-17T08:11:35.760Z,99732.22
2022-08-17T08:14:39.781Z,99745.97
2022-08-17T08:17:09.406Z,99740.41
2022-08-17T08:19:36.392Z,99722.31
2022-08-17T08:22:18.878Z,99747.19
2022-08-17T08:25:23.248Z,99741.66
2022-08-17T13:35:36.457Z,99611.69
2022-08-17T13:38:10.942Z,99605.19
2022-08-17T13:40:50.964Z,99591.28
2022-08-17T13:43:42.873Z,99612.25
2022-08-17T13:46:22.440Z,99609.28
2022-08-17T13:49:09.934Z,99591.09
2022-08-17T13:51:44.129Z,99593.63
2022-08-17T13:58:03.503Z,99598.34
2022-08-17T14:00:33.963Z,99613.25
2022-08-17T14:03:02.095Z,99609.75
2022-08-17T14:05:30.663Z,99595.63
2022-08-17T14:08:06.831Z,99574.50
2022-08-17T14:10:37.004Z,99586.25
2022-08-17T14:13:05.136Z,99601.03
2022-08-17T14:16:32.001Z,99605.41
2022-08-17T14:18:58.892Z,99610.53
2022-08-17T14:21:25.805Z,99590.00
2022-08-17T14:23:54.794Z,99570.72
2022-08-17T14:26:21.950Z,99599.84
2022-08-17T14:28:56.303Z,99597.34
2022-08-17T14:31:23.554Z,99582.56
2022-08-17T14:33:50.363Z,99577.28
2022-08-17T14:36:18.071Z,99580.47
2022-08-17T14:38:45.207Z,99585.06
2022-08-17T14:41:12.103Z,99583.63
2022-08-17T14:43:39.966Z,99523.69
2022-08-17T14:46:07.122Z,99591.03
2022-08-17T14:48:35.880Z,99586.03
2022-08-17T14:51:05.090Z,99582.19
2022-08-17T14:53:31.867Z,99586.97
2022-08-17T14:55:59.074Z,99591.81
2022-08-17T14:58:26.130Z,99575.88
2022-08-17T15:00:53.489Z,99583.13
2022-08-17T15:03:20.349Z,99587.19
2022-08-17T15:05:47.356Z,99560.84
2022-08-17T15:08:16.663Z,99575.75
2022-08-17T15:10:44.877Z,99531.44
2022-08-17T15:13:21.061Z,99582.16
2022-08-17T15:15:48.913Z,99587.28
2022-08-17T15:18:16.694Z,99588.22
2022-08-17T15:20:44.468Z,99553.56
2022-08-17T15:23:20.766Z,99577.91
2022-08-17T15:25:49.626Z,99588.03
2022-08-17T15:28:17.265Z,99594.03
2022-08-17T15:30:45.123Z,99555.00
2022-08-17T15:33:29.477Z,99584.13
2022-08-17T15:36:03.537Z,99583.91
2022-08-17T15:38:35.338Z,99590.78
2022-08-17T15:41:02.365Z,99584.69
2022-08-17T15:43:33.890Z,99587.00
2022-08-17T15:46:03.846Z,99584.03
2022-08-17T15:48:42.523Z,99575.03
2022-08-17T15:51:12.484Z,99563.22
2022-08-17T15:53:41.250Z,99575.50
2022-08-17T15:56:08.660Z,99575.16
2022-08-17T15:58:36.678Z,99565.72
2022-08-17T16:01:16.481Z,99543.03
2022-08-17T16:04:04.680Z,99590.47
2022-08-17T16:06:34.651Z,99585.91
2022-08-17T16:09:01.468Z,99582.13
2022-08-17T16:11:28.222Z,99564.97
2022-08-17T16:13:56.203Z,99574.69
2022-08-17T16:16:23.813Z,99555.63
2022-08-17T16:18:53.681Z,99575.06
2022-08-17T16:21:25.999Z,99571.28
2022-08-17T16:24:13.430Z,99577.25
2022-08-17T16:26:40.861Z,99579.66
2022-08-17T16:29:08.383Z,99590.16
2022-08-17T16:31:36.192Z,99589.09
2022-08-17T16:34:17.696Z,99583.94
2022-08-17T16:36:54.762Z,99552.97
2022-08-17T16:39:29.136Z,99583.94
2022-08-17T16:41:57.538Z,99591.38
2022-08-17T16:44:25.871Z,99564.56
2022-08-17T16:46:53.501Z,99570.06
2022-08-17T16:49:35.261Z,99585.50
2022-08-17T16:52:06.007Z,99575.88
2022-08-17T16:54:33.538Z,99574.69
2022-08-17T16:57:00.322Z,99568.03
2022-08-17T16:59:31.704Z,99549.25
2022-08-17T17:02:11.484Z,99577.13
2022-08-17T17:04:45.921Z,99589.66
2022-08-17T17:07:35.223Z,99588.72
2022-08-17T17:10:10.644Z,99586.28
2022-08-17T17:13:03.310Z,99574.00
2022-08-17T17:15:33.114Z,99597.03
2022-08-17T17:18:06.727Z,99593.28
2022-08-17T17:20:45.905Z,99578.69
2022-08-17T17:23:40.534Z,99604.19
2022-08-17T17:26:49.393Z,99599.59
2022-08-17T17:29:26.807Z,99592.84
2022-08-17T17:32:31.117Z,99603.94
2022-08-17T17:35:07.093Z,99607.16
2022-08-17T17:37:35.644Z,99591.91
2022-08-17T17:40:13.436Z,99605.75
2022-08-17T17:42:43.682Z,99614.81
2022-08-17T17:45:35.925Z,99598.75
2022-08-17T17:48:03.056Z,99617.41
2022-08-17T17:50:44.744Z,99621.72
2022-08-17T17:53:48.626Z,99614.50
2022-08-17T17:56:43.743Z,99627.28
2022-08-17T17:59:16.745Z,99626.06
2022-08-17T18:01:56.781Z,99633.44
2022-08-17T18:04:41.401Z,99586.84
2022-08-17T18:07:15.617Z,99630.81
2022-08-17T18:10:19.502Z,99643.66
2022-08-17T18:13:26.636Z,99639.72
2022-08-17T18:15:55.649Z,99627.06
2022-08-17T18:18:37.598Z,99650.16
2022-08-17T18:21:21.542Z,99644.44
2022-08-17T18:23:51.257Z,99659.66
2022-08-17T18:26:33.333Z,99653.88
2022-08-17T18:29:01.523Z,99638.88
2022-08-17T18:31:29.103Z,99665.63
2022-08-17T18:37:26.542Z,99664.44
2022-08-17T18:39:53.415Z,99661.75
2022-08-17T18:42:29.150Z,99666.31
2022-08-17T18:44:56.463Z,99648.41
2022-08-17T18:47:27.610Z,99662.59
2022-08-17T18:50:20.451Z,99666.03
2022-08-17T18:52:48.724Z,99655.47
2022-08-17T18:55:31.376Z,99668.28
2022-08-17T18:58:18.262Z,99665.94
2022-08-17T19:00:48.555Z,99659.19
2022-08-17T19:03:18.592Z,99674.84
2022-08-17T19:05:45.324Z,99666.47
2022-08-17T19:08:35.150Z,99669.81
2022-08-17T19:11:21.428Z,99668.63
2022-08-17T19:14:09.363Z,99654.44
2022-08-17T19:16:57.324Z,99676.63
2022-08-17T19:19:34.269Z,99658.94
2022-08-17T19:22:28.993Z,99675.41
2022-08-17T19:25:19.021Z,99677.22
2022-08-17T19:27:57.522Z,99602.03
2022-08-17T19:30:25.205Z,99666.84
2022-08-17T19:32:53.123Z,99687.44
2022-08-17T19:35:22.878Z,99668.44
2022-08-17T19:38:03.855Z,99680.94
2022-08-17T19:40:52.839Z,99654.44
2022-08-17T19:43:48.462Z,99676.38
2022-08-17T19:46:15.185Z,99677.38
2022-08-17T19:48:54.203Z,99673.19
2022-08-17T19:51:35.763Z,99679.06
2022-08-17T19:54:06.588Z,99683.09
2022-08-17T19:56:41.704Z,99665.03
2022-08-17T19:59:46.472Z,99670.06
2022-08-17T20:02:36.699Z,99667.16
2022-08-17T20:05:12.180Z,99686.16
2022-08-17T20:07:41.957Z,99678.75
2022-08-17T20:10:17.663Z,99656.81
2022-08-17T20:12:50.612Z,99675.00
2022-08-17T20:15:23.277Z,99669.34
2022-08-17T20:17:50.844Z,99672.31
2022-08-17T20:20:38.835Z,99684.72
2022-08-17T20:23:26.552Z,99686.09
2022-08-17T20:26:19.412Z,99681.81
2022-08-17T20:29:14.354Z,99675.53
2022-08-17T20:31:55.645Z,99675.66
2022-08-17T20:34:33.403Z,99683.50
2022-08-17T20:37:04.072Z,99685.97
2022-08-17T20:39:38.025Z,99688.81
2022-08-17T20:42:10.379Z,99657.28
2022-08-17T20:44:40.381Z,99681.75
2022-08-17T20:47:18.513Z,99665.91
2022-08-17T20:49:45.231Z,99689.78
2022-08-17T20:52:16.703Z,99687.59
2022-08-17T20:54:55.961Z,99660.16
2022-08-17T20:57:31.876Z,99695.97
2022-08-17T21:00:04.887Z,99695.84
2022-08-17T21:02:32.472Z,99670.53
2022-08-17T21:05:05.449Z,99690.91
2022-08-17T21:07:42.792Z,99695.34
2022-08-17T21:10:13.995Z,99671.59
2022-08-17T21:12:41.637Z,99687.31
2022-08-17T21:15:28.652Z,99660.47
2022-08-17T21:18:07.151Z,99649.81
2022-08-17T21:20:49.408Z,99654.13
2022-08-17T21:23:25.246Z,99690.38
2022-08-17T21:26:09.176Z,99682.03
2022-08-17T21:29:01.202Z,99659.03
2022-08-17T21:31:40.153Z,99683.47
2022-08-17T21:34:24.532Z,99652.78
2022-08-17T21:36:51.532Z,99687.03
2022-08-17T21:39:33.608Z,99679.44
2022-08-17T21:42:01.404Z,99678.22
2022-08-17T21:44:35.463Z,99645.84
2022-08-17T21:47:23.812Z,99689.22
2022-08-17T21:49:52.245Z,99671.78
2022-08-17T21:52:22.344Z,99675.31
2022-08-17T21:55:02.528Z,99692.38
2022-08-17T21:57:30.997Z,99696.47
2022-08-17T22:00:01.390Z,99701.91
2022-08-17T22:02:37.110Z,99703.91
2022-08-17T22:05:11.614Z,99702.88
2022-08-17T22:07:53.304Z,99706.38
2022-08-17T22:10:31.150Z,99693.28
2022-08-17T22:13:16.964Z,99714.69
2022-08-17T22:15:47.935Z,99721.00
2022-08-17T22:18:21.726Z,99617.31
2022-08-17T22:20:55.274Z,99708.09
2022-08-17T22:24:01.817Z,99710.00
2022-08-17T22:27:12.462Z,99720.81
2022-08-17T22:29:57.076Z,99719.81
2022-08-17T22:32:41.497Z,99729.81
2022-08-17T22:35:29.487Z,99723.75
2022-08-17T22:37:57.022Z,99708.19
2022-08-17T22:40:30.539Z,99721.13
2022-08-17T22:42:59.020Z,99719.31
2022-08-17T22:45:31.193Z,99709.22
2022-08-17T22:48:00.577Z,99726.16
2022-08-17T22:50:33.067Z,99708.50
2022-08-17T22:53:31.894Z,99712.47
2022-08-17T22:56:17.562Z,99721.28
2022-08-17T22:59:11.033Z,99736.66
2022-08-17T23:01:39.213Z,99736.22
2022-08-17T23:04:32.392Z,99733.53
2022-08-17T23:06:59.144Z,99739.97
2022-08-17T23:09:25.862Z,99730.38
2022-08-17T23:11:58.817Z,99736.84
2022-08-17T23:14:31.782Z,99747.69
2022-08-17T23:17:02.385Z,99740.47
2022-08-17T23:19:31.817Z,99659.28
2022-08-17T23:22:01.795Z,99729.44
2022-08-17T23:24:35.845Z,99714.09
2022-08-17T23:27:07.744Z,99697.13
2022-08-17T23:29:35.441Z,99714.06
2022-08-17T23:32:04.789Z,99736.38
2022-08-17T23:34:31.704Z,99699.06
2022-08-17T23:36:58.625Z,99730.22
2022-08-17T23:39:28.106Z,99648.00
2022-08-17T23:41:59.549Z,99716.03
2022-08-17T23:44:27.498Z,99664.63
2022-08-17T23:46:54.575Z,99723.63
2022-08-17T23:49:21.710Z,99715.75
2022-08-17T23:51:49.138Z,99712.13
2022-08-17T23:54:21.938Z,99699.84
2022-08-17T23:56:48.797Z,99691.38
2022-08-17T23:59:18.335Z,99702.75
